Time;durP1;ratioP1;P1;durP2;ratioP2;P2;SDS_P1;SDS_P2;PMS_P1;PMS_P2;Temp;Humidity;BMP_temperature;BMP_pressure;BME280_temperature;BME280_humidity;BME280_pressure;Samples;Min_cycle;Max_cycle;Signal;HPM_P1;HPM_P2
2021/05/27 00:03:55;;;;;;;;;4.00;3.50;;;;;13.75;67.72;101136.38;5056470;28;45671;-82
2021/05/27 00:06:21;;;;;;;;;3.00;3.00;;;;;13.72;68.03;101136.59;5056524;28;45480;-85
2021/05/27 00:08:46;;;;;;;;;2.75;2.75;;;;;13.69;68.06;101134.22;5057290;28;45587;-85
2021/05/27 00:11:12;;;;;;;;;3.00;3.00;;;;;13.66;68.09;101123.06;5056681;28;45713;-84
2021/05/27 00:13:37;;;;;;;;;3.00;3.00;;;;;13.66;68.53;101130.94;5053828;28;45671;-85
2021/05/27 00:16:03;;;;;;;;;2.25;2.00;;;;;13.67;67.92;101127.38;5055843;28;45637;-82
2021/05/27 00:18:28;;;;;;;;;3.50;2.75;;;;;13.63;68.21;101134.69;5052377;28;46527;-83
2021/05/27 00:20:53;;;;;;;;;4.00;3.00;;;;;13.66;68.19;101139.69;5056783;28;46231;-84
2021/05/27 00:23:19;;;;;;;;;2.00;2.00;;;;;13.62;67.85;101130.34;5038730;28;45866;-82
2021/05/27 00:25:44;;;;;;;;;4.50;3.00;;;;;13.62;67.98;101124.25;5055348;28;45627;-83
2021/05/27 00:28:10;;;;;;;;;2.75;2.75;;;;;13.65;67.92;101134.56;5057092;28;45882;-83
2021/05/27 00:33:57;;;;;;;;;3.00;2.25;;;;;13.65;68.26;101142.47;5059417;28;45550;-83
2021/05/27 00:36:23;;;;;;;;;4.75;3.75;;;;;13.61;68.33;101139.19;5059038;28;45677;-83
2021/05/27 00:38:48;;;;;;;;;3.00;2.50;;;;;13.61;68.91;101146.25;5060302;28;46345;-82
2021/05/27 00:41:13;;;;;;;;;4.00;4.00;;;;;13.54;68.55;101132.75;5060727;28;45432;-85
2021/05/27 00:43:39;;;;;;;;;4.00;3.00;;;;;13.54;68.49;101139.81;5062135;28;45544;-84
2021/05/27 00:46:04;;;;;;;;;3.75;3.00;;;;;13.52;68.29;101139.91;5061079;28;45503;-85
2021/05/27 00:51:14;;;;;;;;;4.25;3.50;;;;;13.50;68.24;101143.59;5060398;28;46111;-83
2021/05/27 00:53:40;;;;;;;;;3.00;3.00;;;;;13.44;68.19;101137.84;5057799;28;45730;-85
2021/05/27 00:56:06;;;;;;;;;4.25;3.50;;;;;13.44;67.72;101140.47;5059499;28;45718;-86
2021/05/27 00:58:32;;;;;;;;;4.00;3.00;;;;;13.41;68.57;101151.22;5057739;28;45675;-82
2021/05/27 01:04:19;;;;;;;;;4.50;3.75;;;;;13.42;68.47;101157.34;5060100;28;45590;-82
2021/05/27 01:06:45;;;;;;;;;3.00;3.00;;;;;13.43;68.75;101151.13;5058051;28;45890;-83
2021/05/27 01:09:11;;;;;;;;;3.00;3.00;;;;;13.39;68.13;101153.13;5058006;28;45641;-83
2021/05/27 01:11:36;;;;;;;;;3.00;3.00;;;;;13.39;68.29;101147.03;5058894;28;46315;-83
2021/05/27 01:17:15;;;;;;;;;4.75;4.00;;;;;13.35;68.53;101158.72;5015633;28;45560;-85
2021/05/27 01:19:40;;;;;;;;;3.00;3.00;;;;;13.34;68.11;101162.31;5016552;28;46612;-82
2021/05/27 01:22:06;;;;;;;;;3.00;3.00;;;;;13.31;68.08;101167.81;4998840;28;47166;-81
2021/05/27 01:24:31;;;;;;;;;4.00;4.00;;;;;13.26;67.97;101143.63;5015912;28;45855;-84
2021/05/27 01:26:56;;;;;;;;;3.75;3.00;;;;;13.30;67.50;101161.72;5017225;28;45719;-83
2021/05/27 01:29:22;;;;;;;;;5.00;4.00;;;;;13.30;68.14;101164.34;5018405;28;46635;-81
2021/05/27 01:31:47;;;;;;;;;4.25;4.25;;;;;13.30;67.73;101166.13;5017676;28;47089;-82
2021/05/27 01:34:13;;;;;;;;;4.00;4.00;;;;;13.27;68.03;101161.94;5000658;28;45841;-83
2021/05/27 01:36:45;;;;;;;;;5.00;4.00;;;;;13.24;67.38;101163.94;5016229;28;45828;-83
2021/05/27 01:39:11;;;;;;;;;5.50;5.50;;;;;13.21;67.47;101165.03;5016070;28;46768;-83
2021/05/27 01:41:36;;;;;;;;;6.00;6.00;;;;;13.22;67.65;101152.72;5016508;28;45749;-82
2021/05/27 01:44:02;;;;;;;;;5.50;4.75;;;;;13.19;67.51;101159.03;5015391;28;46185;-84
2021/05/27 01:46:28;;;;;;;;;4.00;4.00;;;;;13.18;67.51;101167.03;5016486;28;45627;-82
2021/05/27 01:48:53;;;;;;;;;5.00;4.00;;;;;13.14;67.69;101163.78;5015363;28;45647;-81
2021/05/27 01:51:18;;;;;;;;;6.00;6.00;;;;;13.14;67.68;101166.41;5015426;28;45847;-82
2021/05/27 01:53:44;;;;;;;;;8.50;5.00;;;;;13.11;67.63;101169.25;5045194;28;45614;-83
2021/05/27 01:56:09;;;;;;;;;9.00;7.00;;;;;13.13;67.68;101170.00;5059876;28;45503;-84
2021/05/27 01:58:35;;;;;;;;;6.00;6.00;;;;;13.06;67.45;101166.13;5061530;28;45788;-81
2021/05/27 02:04:22;;;;;;;;;6.00;5.75;;;;;13.10;67.41;101169.34;5064360;28;45613;-90
2021/05/27 02:06:48;;;;;;;;;5.50;5.50;;;;;13.07;67.51;101164.28;5061619;28;45554;-89
2021/05/27 02:09:13;;;;;;;;;6.00;6.00;;;;;13.07;67.18;101170.41;5060285;28;46249;-84
2021/05/27 02:11:44;;;;;;;;;6.00;6.00;;;;;13.08;67.43;101163.34;5057805;28;46167;-85
2021/05/27 02:14:11;;;;;;;;;6.00;5.25;;;;;13.07;67.23;101162.50;5060716;28;45558;-85
2021/05/27 02:16:38;;;;;;;;;8.75;7.00;;;;;13.09;67.29;101167.66;5060358;28;45653;-85
2021/05/27 02:19:04;;;;;;;;;6.75;6.00;;;;;13.07;67.34;101167.78;5062559;28;45554;-89
2021/05/27 02:21:30;;;;;;;;;6.00;5.00;;;;;13.02;67.42;101169.91;5062818;28;46022;-82
2021/05/27 02:23:57;;;;;;;;;5.50;5.00;;;;;13.02;67.29;101162.84;5063740;28;46037;-83
2021/05/27 02:26:23;;;;;;;;;5.00;5.00;;;;;13.06;67.24;101167.91;5063342;28;45840;-88
2021/05/27 02:28:50;;;;;;;;;8.00;7.50;;;;;13.06;67.11;101162.66;5061619;28;46335;-81
2021/05/27 02:34:37;;;;;;;;;7.75;5.75;;;;;13.01;67.07;101165.59;5058865;28;45589;-81
2021/05/27 02:37:03;;;;;;;;;8.00;6.00;;;;;12.99;67.12;101170.13;5060206;28;45743;-83
2021/05/27 02:39:29;;;;;;;;;8.50;6.50;;;;;12.98;67.29;101171.06;5058605;28;45499;-82
2021/05/27 02:41:54;;;;;;;;;5.00;5.00;;;;;12.99;67.37;101172.75;5056243;28;45619;-83
2021/05/27 02:44:20;;;;;;;;;9.75;8.00;;;;;12.94;67.07;101167.84;5072186;28;45560;-82
2021/05/27 02:46:46;;;;;;;;;5.25;5.00;;;;;12.94;67.09;101181.00;5056972;28;45744;-82
2021/05/27 02:49:11;;;;;;;;;7.00;7.00;;;;;12.92;67.33;101171.50;5055744;28;45726;-82
2021/05/27 02:51:37;;;;;;;;;8.75;7.00;;;;;12.96;67.13;101188.75;5057573;28;45899;-85
2021/05/27 02:54:03;;;;;;;;;5.00;4.75;;;;;12.92;67.25;101168.88;5058233;28;45653;-84
2021/05/27 02:56:28;;;;;;;;;5.25;5.00;;;;;12.89;67.38;101164.69;5056071;28;45911;-81
2021/05/27 02:58:54;;;;;;;;;10.00;7.25;;;;;12.92;67.16;101168.88;5059043;28;46752;-83
2021/05/27 03:04:41;;;;;;;;;7.25;6.25;;;;;12.87;67.62;101176.25;5059811;28;45768;-83
2021/05/27 03:07:06;;;;;;;;;6.50;6.00;;;;;12.83;67.42;101166.91;5058611;28;45669;-83
2021/05/27 03:09:32;;;;;;;;;9.00;8.00;;;;;12.81;67.38;101174.91;5062179;28;45528;-86
2021/05/27 03:11:58;;;;;;;;;9.50;8.25;;;;;12.80;67.40;101175.84;5064330;28;45709;-86
2021/05/27 03:14:23;;;;;;;;;6.00;6.00;;;;;12.74;67.32;101167.59;5060413;28;45597;-88
2021/05/27 03:16:49;;;;;;;;;5.75;5.75;;;;;12.74;67.16;101171.03;5060471;28;45597;-88
2021/05/27 03:19:14;;;;;;;;;6.00;6.00;;;;;12.73;67.14;101174.63;5058992;28;46542;-82
2021/05/27 03:21:39;;;;;;;;;2.00;1.00;;;;;12.73;67.36;101181.69;5059211;28;45782;-86
2021/05/27 03:24:05;;;;;;;;;4.50;4.00;;;;;12.73;67.34;101185.16;5055575;28;45642;-84
2021/05/27 03:26:31;;;;;;;;;6.00;5.00;;;;;12.69;67.24;101182.81;5056900;28;45621;-83
2021/05/27 03:28:59;;;;;;;;;8.75;5.25;;;;;12.68;67.35;101176.75;5057389;28;45438;-88
2021/05/27 03:34:46;;;;;;;;;6.00;5.75;;;;;12.64;67.67;101180.50;5055896;28;45605;-83
2021/05/27 03:37:12;;;;;;;;;10.00;8.00;;;;;12.64;67.38;101185.78;5058173;28;45742;-82
2021/05/27 03:39:37;;;;;;;;;8.75;8.00;;;;;12.62;67.45;101182.44;5059754;28;46567;-83
2021/05/27 03:42:03;;;;;;;;;9.25;7.00;;;;;12.60;67.44;101166.75;5057252;28;46152;-83
2021/05/27 03:44:29;;;;;;;;;8.00;7.25;;;;;12.63;67.34;101181.50;5057821;28;45523;-86
2021/05/27 03:50:18;;;;;;;;;8.00;8.00;;;;;12.59;67.54;101175.59;5058483;28;46123;-82
2021/05/27 03:52:43;;;;;;;;;7.00;7.00;;;;;12.54;67.46;101174.22;5058265;28;46097;-83
2021/05/27 03:55:13;;;;;;;;;9.00;8.00;;;;;12.52;67.41;101170.88;5058159;28;46097;-82
2021/05/27 03:57:39;;;;;;;;;13.00;8.75;;;;;12.48;67.36;101170.25;5057749;28;45629;-83
2021/05/27 04:02:56;;;;;;;;;8.75;7.75;;;;;12.53;67.34;101176.00;5056711;28;45730;-88
2021/05/27 04:08:06;;;;;;;;;8.50;6.00;;;;;12.50;67.19;101180.66;5059850;28;45565;-81
2021/05/27 04:10:32;;;;;;;;;9.00;6.00;;;;;12.52;67.38;101184.03;5061816;28;45709;-81
2021/05/27 04:12:58;;;;;;;;;9.75;9.50;;;;;12.49;67.27;101173.72;5059704;28;46315;-82
2021/05/27 04:15:27;;;;;;;;;5.25;5.00;;;;;12.46;67.09;101174.78;5061410;28;45603;-85
2021/05/27 04:18:09;;;;;;;;;10.75;9.75;;;;;12.54;67.14;101195.25;5064332;28;45740;-82
2021/05/27 04:20:43;;;;;;;;;7.25;5.25;;;;;12.50;67.62;101185.91;5065518;28;46872;-82
2021/05/27 04:23:11;;;;;;;;;6.25;5.00;;;;;12.52;67.05;101199.81;5063803;28;45688;-82
2021/05/27 04:25:37;;;;;;;;;8.00;8.00;;;;;12.49;67.23;101189.47;5064063;28;45555;-82
2021/05/27 04:28:04;;;;;;;;;7.25;6.25;;;;;12.41;67.42;101183.94;5064431;28;45503;-83
2021/05/27 04:30:30;;;;;;;;;8.00;8.00;;;;;12.47;67.24;101201.91;5064403;28;45558;-83
2021/05/27 04:33:02;;;;;;;;;9.50;7.75;;;;;12.44;67.43;101202.94;5059749;28;47015;-82
2021/05/27 04:35:35;;;;;;;;;6.50;5.00;;;;;12.47;67.14;101207.97;5061112;28;46064;-82
2021/05/27 04:38:07;;;;;;;;;8.00;6.50;;;;;12.47;67.07;101209.78;5062083;28;45620;-88
2021/05/27 04:40:34;;;;;;;;;10.00;8.00;;;;;12.49;67.36;101207.88;5075350;28;48775;-82
2021/05/27 04:42:59;;;;;;;;;10.00;7.75;;;;;12.42;67.38;101204.84;5058685;28;46052;-87
2021/05/27 04:45:25;;;;;;;;;7.75;7.75;;;;;12.45;67.15;101220.41;5058896;28;45575;-87
2021/05/27 04:47:52;;;;;;;;;9.00;8.50;;;;;12.46;67.03;101213.38;5059379;28;45712;-82
2021/05/27 04:50:17;;;;;;;;;10.25;10.00;;;;;12.49;67.00;101219.22;5059138;28;45662;-86
2021/05/27 04:52:43;;;;;;;;;10.50;10.00;;;;;12.51;67.00;101230.50;5058643;28;46422;-85
2021/05/27 04:55:11;;;;;;;;;9.25;8.00;;;;;12.48;66.92;101222.81;5057241;28;45620;-84
2021/05/27 04:57:37;;;;;;;;;10.00;10.00;;;;;12.53;66.78;101220.69;5059797;28;45824;-82
2021/05/27 05:00:06;;;;;;;;;14.25;11.75;;;;;12.58;66.51;101226.47;5058005;28;45517;-84
2021/05/27 05:02:31;;;;;;;;;9.00;9.00;;;;;12.60;66.78;101221.97;5058121;28;46303;-83
2021/05/27 05:04:56;;;;;;;;;10.00;8.75;;;;;12.57;66.64;101216.94;5056771;28;45472;-82
2021/05/27 05:07:22;;;;;;;;;7.75;7.75;;;;;12.62;66.67;101219.22;5058153;28;45408;-84
2021/05/27 05:09:47;;;;;;;;;6.75;5.50;;;;;12.63;66.68;101227.00;5061251;28;46502;-85
2021/05/27 05:12:13;;;;;;;;;13.00;9.50;;;;;12.65;66.44;101219.00;5059498;28;47045;-83
2021/05/27 05:14:38;;;;;;;;;10.75;9.25;;;;;12.69;66.46;101223.09;5061382;28;45571;-83
2021/05/27 05:20:54;;;;;;;;;12.00;10.00;;;;;12.72;66.28;101224.69;5053223;28;46135;-84
2021/05/27 05:23:19;;;;;;;;;10.75;9.00;;;;;12.78;66.56;101230.34;5075502;28;48507;-82
2021/05/27 05:25:46;;;;;;;;;8.00;8.00;;;;;12.75;66.36;101221.81;5058426;28;45700;-84
2021/05/27 05:28:12;;;;;;;;;8.50;8.50;;;;;12.79;66.34;101229.41;5059848;28;45618;-82
2021/05/27 05:30:38;;;;;;;;;7.75;7.00;;;;;12.76;66.46;101231.41;5058507;28;45553;-82
2021/05/27 05:33:04;;;;;;;;;8.25;6.50;;;;;12.79;66.15;101231.22;5059283;28;45543;-82
2021/05/27 05:35:30;;;;;;;;;7.75;7.75;;;;;12.74;66.07;101226.25;5059267;27;45711;-82
2021/05/27 05:37:56;;;;;;;;;7.25;7.25;;;;;12.78;66.09;101234.78;5058173;28;45705;-84
2021/05/27 05:40:24;;;;;;;;;9.00;7.25;;;;;12.88;66.04;101244.53;5055423;28;48764;-84
2021/05/27 05:42:51;;;;;;;;;6.75;6.50;;;;;12.92;65.92;101245.16;5057362;28;46442;-83
2021/05/27 05:45:18;;;;;;;;;6.75;6.25;;;;;12.96;65.92;101251.88;5055330;28;45721;-84
2021/05/27 05:51:07;;;;;;;;;9.25;9.00;;;;;13.02;65.83;101254.06;5059318;28;45680;-83
2021/05/27 05:53:33;;;;;;;;;9.50;9.00;;;;;13.03;65.92;101253.13;5059546;28;45938;-82
2021/05/27 05:56:01;;;;;;;;;10.75;9.00;;;;;13.08;65.55;101258.06;5059738;28;45668;-82
2021/05/27 05:58:26;;;;;;;;;10.00;9.00;;;;;13.09;65.45;101262.38;5058207;28;45734;-83
2021/05/27 06:00:52;;;;;;;;;9.75;9.00;;;;;13.12;65.74;101280.63;5059902;28;45636;-81
2021/05/27 06:03:18;;;;;;;;;7.00;6.00;;;;;13.08;65.83;101274.69;5062382;28;45770;-83
2021/05/27 06:05:44;;;;;;;;;7.00;6.50;;;;;13.09;65.71;101271.09;5060939;28;45576;-84
2021/05/27 06:08:10;;;;;;;;;9.00;6.25;;;;;13.15;65.46;101264.59;5061891;28;45684;-83
2021/05/27 06:10:35;;;;;;;;;9.00;8.25;;;;;13.16;65.44;101272.41;5059633;28;45763;-80
2021/05/27 06:13:01;;;;;;;;;6.50;6.00;;;;;13.18;65.39;101270.47;5057540;27;46281;-84
2021/05/27 06:15:28;;;;;;;;;7.00;6.00;;;;;13.23;65.43;101275.41;5057832;28;45708;-82
2021/05/27 06:21:15;;;;;;;;;9.00;7.25;;;;;13.27;65.83;101276.91;5048673;28;46083;-83
2021/05/27 06:23:40;;;;;;;;;7.00;7.00;;;;;13.27;65.18;101272.47;5057448;28;46096;-84
2021/05/27 06:26:06;;;;;;;;;10.00;6.50;;;;;13.26;65.26;101268.16;5057875;28;45639;-83
2021/05/27 06:28:31;;;;;;;;;9.25;7.75;;;;;13.29;65.40;101274.97;5058769;28;45932;-82
2021/05/27 06:30:57;;;;;;;;;5.25;5.25;;;;;13.37;65.37;101277.91;5063153;28;45608;-84
2021/05/27 06:33:23;;;;;;;;;10.00;10.00;;;;;13.36;65.34;101277.06;5056658;28;45665;-86
2021/05/27 06:35:49;;;;;;;;;7.00;6.00;;;;;13.44;65.11;101284.44;5057830;28;45523;-91
2021/05/27 06:38:15;;;;;;;;;8.50;7.50;;;;;13.42;64.87;101270.53;5060596;28;45392;-87
2021/05/27 06:40:41;;;;;;;;;7.50;6.75;;;;;13.48;65.08;101279.78;5057865;28;46076;-85
2021/05/27 06:43:08;;;;;;;;;8.75;8.50;;;;;13.51;65.29;101280.38;5057215;28;46159;-86
2021/05/27 06:45:35;;;;;;;;;6.75;6.00;;;;;13.50;64.69;101277.84;5058126;28;45523;-85
2021/05/27 06:51:23;;;;;;;;;6.00;5.00;;;;;13.60;64.62;101276.25;5056021;28;45689;-82
2021/05/27 06:53:50;;;;;;;;;9.50;7.00;;;;;13.62;64.48;101272.53;5056834;28;45606;-82
2021/05/27 06:56:15;;;;;;;;;6.00;6.00;;;;;13.68;64.37;101268.63;5057499;28;45695;-83
2021/05/27 06:58:42;;;;;;;;;10.25;8.50;;;;;13.65;64.27;101258.31;5056699;28;45985;-87
2021/05/27 07:01:08;;;;;;;;;8.25;7.00;;;;;13.72;64.39;101265.63;5057947;28;46603;-83
2021/05/27 07:03:34;;;;;;;;;15.00;14.00;;;;;13.85;63.99;101278.75;5072251;28;46375;-83
2021/05/27 07:06:02;;;;;;;;;5.75;5.75;;;;;13.89;63.87;101280.19;5059218;28;45644;-83
2021/05/27 07:08:27;;;;;;;;;11.00;9.50;;;;;13.93;63.98;101284.28;5056449;28;45649;-84
2021/05/27 07:10:52;;;;;;;;;10.75;10.25;;;;;13.96;64.02;101293.75;5056910;28;46571;-81
2021/05/27 07:13:18;;;;;;;;;11.00;9.75;;;;;13.95;63.77;101277.13;5056013;28;45788;-81
2021/05/27 07:15:43;;;;;;;;;9.00;8.25;;;;;14.05;63.92;101286.00;5056423;28;45635;-79
2021/05/27 07:21:30;;;;;;;;;7.25;7.00;;;;;14.12;63.60;101289.88;5050480;28;46015;-80
2021/05/27 07:23:56;;;;;;;;;8.00;7.00;;;;;14.14;63.47;101284.50;5053945;28;45781;-80
2021/05/27 07:26:21;;;;;;;;;8.00;7.50;;;;;14.21;63.68;101281.28;5053883;27;45768;-80
2021/05/27 07:28:47;;;;;;;;;8.25;8.00;;;;;14.22;63.49;101287.38;5053725;27;45601;-80
2021/05/27 07:31:12;;;;;;;;;13.00;9.75;;;;;14.30;63.16;101291.09;5053449;28;45648;-81
2021/05/27 07:36:59;;;;;;;;;7.75;6.00;;;;;14.39;62.72;101294.03;5053541;28;45596;-79
2021/05/27 07:39:25;;;;;;;;;6.25;6.25;;;;;14.42;63.02;101294.66;5053778;28;45602;-78
2021/05/27 07:41:51;;;;;;;;;7.25;5.75;;;;;14.48;62.44;101294.19;5068846;27;47119;-79
2021/05/27 07:44:16;;;;;;;;;7.00;6.00;;;;;14.54;62.49;101309.53;5057394;28;46050;-78
2021/05/27 07:46:41;;;;;;;;;6.25;6.00;;;;;14.56;62.23;101304.16;5057000;28;45590;-79
2021/05/27 07:49:07;;;;;;;;;7.00;6.00;;;;;14.60;62.28;101305.59;5057037;28;45678;-79
2021/05/27 07:51:33;;;;;;;;;5.75;5.00;;;;;14.63;61.81;101300.06;5056931;28;45922;-79
2021/05/27 07:53:59;;;;;;;;;5.50;5.50;;;;;14.61;62.15;101292.28;5057069;28;46373;-78
2021/05/27 07:56:25;;;;;;;;;5.50;5.00;;;;;14.70;61.69;101307.41;5057042;28;45759;-80
2021/05/27 07:58:50;;;;;;;;;6.00;6.00;;;;;14.72;61.20;101302.03;5059149;28;45774;-79
2021/05/27 08:01:16;;;;;;;;;6.00;5.75;;;;;14.76;60.77;101310.53;5060726;28;46752;-78
2021/05/27 08:07:03;;;;;;;;;6.75;6.75;;;;;14.82;60.43;101307.41;5058068;28;45655;-81
2021/05/27 08:09:29;;;;;;;;;5.75;5.25;;;;;14.85;60.47;101315.91;5059847;28;45837;-80
2021/05/27 08:11:54;;;;;;;;;5.00;4.50;;;;;14.87;59.98;101307.91;5061956;28;45715;-79
2021/05/27 08:14:20;;;;;;;;;2.75;2.75;;;;;14.92;59.74;101314.50;5057851;28;46242;-81
2021/05/27 08:16:46;;;;;;;;;5.25;4.75;;;;;14.96;59.35;101307.16;5058078;28;45550;-82
2021/05/27 08:23:00;;;;;;;;;7.25;6.25;;;;;14.99;58.83;101313.06;5050591;28;46245;-79
2021/05/27 08:25:26;;;;;;;;;8.00;7.00;;;;;15.01;58.71;101303.22;5057182;28;45965;-80
2021/05/27 08:27:51;;;;;;;;;8.50;6.25;;;;;15.10;59.23;101307.78;5056898;28;45621;-83
2021/05/27 08:30:19;;;;;;;;;7.25;7.00;;;;;15.14;58.92;101311.00;5059088;28;45695;-80
2021/05/27 08:32:44;;;;;;;;;7.25;6.00;;;;;15.16;58.64;101301.19;5061097;28;46450;-82
2021/05/27 08:35:10;;;;;;;;;7.50;5.00;;;;;15.21;58.71;101309.56;5058714;28;45830;-81
2021/05/27 08:37:35;;;;;;;;;4.75;3.00;;;;;15.28;58.56;101320.47;5057123;28;45682;-81
2021/05/27 08:40:01;;;;;;;;;2.75;2.00;;;;;15.27;58.53;101311.72;5057004;28;45585;-83
2021/05/27 08:42:26;;;;;;;;;3.00;3.00;;;;;15.30;58.42;101308.84;5056381;28;45589;-79
2021/05/27 08:44:55;;;;;;;;;3.00;2.75;;;;;15.34;57.82;101317.34;5056358;28;45902;-83
2021/05/27 08:47:21;;;;;;;;;3.00;3.00;;;;;15.44;56.90;101315.63;5056487;28;45801;-82
2021/05/27 08:53:08;;;;;;;;;2.75;2.00;;;;;15.50;56.30;101312.50;5055184;28;46145;-82
2021/05/27 08:55:36;;;;;;;;;4.00;3.00;;;;;15.48;56.45;101312.66;5056263;28;46448;-82
2021/05/27 08:58:02;;;;;;;;;3.00;3.00;;;;;15.53;55.94;101304.41;5056211;28;45749;-82
2021/05/27 09:00:27;;;;;;;;;3.00;3.00;;;;;15.61;55.86;101312.53;5056359;28;45519;-82
2021/05/27 09:02:55;;;;;;;;;3.00;3.00;;;;;15.66;56.09;101312.16;5071757;28;46217;-82
2021/05/27 09:05:21;;;;;;;;;3.50;3.50;;;;;15.65;55.66;101310.50;5058993;28;45989;-83
2021/05/27 09:07:46;;;;;;;;;3.00;3.00;;;;;15.68;55.95;101313.72;5061775;28;45708;-82
2021/05/27 09:10:12;;;;;;;;;2.00;2.00;;;;;15.79;55.70;101328.69;5057297;28;45681;-83
2021/05/27 09:12:38;;;;;;;;;4.75;4.25;;;;;15.81;55.42;101314.41;5056000;27;45757;-83
2021/05/27 09:15:18;;;;;;;;;3.50;3.00;;;;;15.88;55.24;101310.28;5056316;28;46279;-83
2021/05/27 09:24:44;;;;;;;;;5.00;4.25;;;;;16.03;55.08;101320.56;5055321;28;45721;-82
2021/05/27 09:27:12;;;;;;;;;5.00;3.00;;;;;16.05;54.92;101311.53;5054215;28;47260;-84
2021/05/27 09:29:46;;;;;;;;;4.25;4.00;;;;;16.15;55.04;101314.25;5055378;28;45499;-80
2021/05/27 09:32:12;;;;;;;;;2.00;2.00;;;;;16.16;54.48;101316.78;5055884;28;45457;-81
2021/05/27 09:37:59;;;;;;;;;4.00;3.50;;;;;16.28;53.61;101322.84;5060351;28;45837;-81
2021/05/27 09:40:43;;;;;;;;;3.50;3.00;;;;;16.34;53.70;101332.91;5060544;28;45641;-84
2021/05/27 09:43:11;;;;;;;;;5.75;5.25;;;;;16.39;53.79;101336.00;5055681;28;45656;-81
2021/05/27 09:45:39;;;;;;;;;4.25;3.75;;;;;16.42;53.06;101332.25;5055600;28;45571;-79
2021/05/27 09:48:22;;;;;;;;;4.25;4.00;;;;;16.42;53.05;101325.16;5070681;28;47332;-81
2021/05/27 09:50:48;;;;;;;;;5.00;4.00;;;;;16.47;52.88;101325.63;5054979;28;45696;-81
2021/05/27 09:53:19;;;;;;;;;4.25;3.50;;;;;16.53;52.71;101329.56;5055311;28;45490;-79
2021/05/27 09:55:45;;;;;;;;;4.25;4.00;;;;;16.47;52.33;101322.97;5053609;28;47554;-81
2021/05/27 09:58:12;;;;;;;;;4.25;4.00;;;;;16.58;52.61;101327.34;5055427;28;45728;-79
2021/05/27 10:00:41;;;;;;;;;4.00;3.50;;;;;16.63;52.33;101335.75;5055120;28;45827;-80
2021/05/27 10:09:51;;;;;;;;;4.75;4.00;;;;;16.75;51.57;101335.56;5057466;28;45866;-82
2021/05/27 10:12:16;;;;;;;;;4.00;3.00;;;;;16.75;51.25;101319.69;5057249;28;45616;-81
2021/05/27 10:14:42;;;;;;;;;3.50;3.00;;;;;16.77;51.02;101325.72;5055206;28;45580;-81
2021/05/27 10:17:07;;;;;;;;;2.75;2.75;;;;;16.89;50.45;101333.56;5070007;28;48392;-80
2021/05/27 10:19:33;;;;;;;;;2.75;2.75;;;;;16.93;50.36;101330.53;5054923;28;45617;-83
2021/05/27 10:21:58;;;;;;;;;3.50;3.00;;;;;16.93;50.54;101343.75;5054557;28;45831;-82
2021/05/27 10:24:24;;;;;;;;;5.00;3.00;;;;;17.01;50.25;101337.78;5053836;28;45663;-80
2021/05/27 10:26:49;;;;;;;;;3.75;3.75;;;;;17.04;49.77;101334.88;5054397;28;46220;-80
2021/05/27 10:29:17;;;;;;;;;2.25;2.25;;;;;17.06;49.89;101333.75;5054463;28;46083;-80
2021/05/27 10:31:47;;;;;;;;;3.00;3.00;;;;;17.11;49.56;101341.34;5054325;28;45583;-79
2021/05/27 10:34:58;;;;;;;;;5.00;3.75;;;;;17.17;49.44;101338.13;5054346;28;45597;-81
2021/05/27 10:37:33;;;;;;;;;4.25;3.00;;;;;17.20;49.55;101330.78;5051427;27;45742;-80
2021/05/27 10:39:58;;;;;;;;;4.25;4.00;;;;;17.20;49.48;101328.13;5054893;28;46433;-84
2021/05/27 10:42:24;;;;;;;;;5.50;4.25;;;;;17.22;49.59;101332.47;5055044;28;45522;-81
2021/05/27 10:45:10;;;;;;;;;4.00;4.00;;;;;17.27;49.54;101338.19;5054059;28;46056;-82
2021/05/27 10:47:35;;;;;;;;;5.00;3.75;;;;;17.32;48.74;101339.47;5054518;28;45561;-84
2021/05/27 10:50:02;;;;;;;;;4.25;4.25;;;;;17.39;48.00;101337.09;5057600;28;46173;-85
2021/05/27 10:52:45;;;;;;;;;4.25;3.75;;;;;17.44;48.11;101342.81;5058028;28;45788;-83
2021/05/27 10:55:49;;;;;;;;;3.75;3.75;;;;;17.51;47.81;101346.63;5055371;28;45559;-83
2021/05/27 10:58:18;;;;;;;;;4.00;4.00;;;;;17.53;47.76;101329.63;5060360;28;46486;-86
2021/05/27 11:00:52;;;;;;;;;6.00;4.50;;;;;17.58;47.73;101330.06;5070226;28;45432;-84
2021/05/27 11:03:46;;;;;;;;;4.75;3.25;;;;;17.62;47.06;101341.25;5061427;28;45589;-85
2021/05/27 11:06:20;;;;;;;;;3.00;3.00;;;;;17.63;46.39;101334.13;5060476;28;45586;-80
2021/05/27 11:08:47;;;;;;;;;3.00;3.00;;;;;17.71;46.80;101343.06;5054778;28;48028;-81
2021/05/27 11:11:34;;;;;;;;;4.00;4.00;;;;;17.77;46.30;101333.72;5054516;28;45586;-83
2021/05/27 11:14:33;;;;;;;;;5.25;5.25;;;;;17.83;46.35;101335.81;5054894;28;45710;-83
2021/05/27 11:17:02;;;;;;;;;5.50;5.50;;;;;17.87;46.20;101335.41;5052391;28;45911;-81
2021/05/27 11:23:02;;;;;;;;;4.00;4.00;;;;;17.94;45.32;101336.53;5053407;28;46154;-82
2021/05/27 11:25:30;;;;;;;;;4.00;3.00;;;;;17.98;45.42;101321.19;5054133;28;45773;-83
2021/05/27 11:28:02;;;;;;;;;6.50;4.00;;;;;18.03;44.57;101337.50;5055054;28;45714;-82
2021/05/27 11:30:36;;;;;;;;;6.25;6.00;;;;;18.07;44.45;101338.94;5057906;28;45572;-84
2021/05/27 11:33:23;;;;;;;;;5.00;5.00;;;;;18.12;44.42;101335.84;5070359;28;47555;-84
2021/05/27 11:39:10;;;;;;;;;6.00;4.00;;;;;18.19;44.64;101310.44;5053990;28;45594;-84
2021/05/27 11:41:38;;;;;;;;;3.00;3.00;;;;;18.28;44.51;101318.41;5055750;28;46320;-83
2021/05/27 11:44:09;;;;;;;;;4.50;4.50;;;;;18.40;44.98;101325.22;5061108;28;48473;-85
2021/05/27 11:46:34;;;;;;;;;4.75;4.00;;;;;18.46;45.01;101326.47;5058895;28;45573;-82
2021/05/27 11:49:00;;;;;;;;;6.25;5.25;;;;;18.49;45.00;101320.03;5053722;28;45713;-82
2021/05/27 11:54:52;;;;;;;;;4.00;4.00;;;;;18.63;44.40;101322.25;5053006;28;45754;-78
2021/05/27 11:57:18;;;;;;;;;5.75;5.25;;;;;18.65;43.66;101325.63;5051984;28;45557;-80
2021/05/27 11:59:43;;;;;;;;;4.75;4.50;;;;;18.64;43.28;101319.47;5054840;28;45619;-78
2021/05/27 12:02:10;;;;;;;;;4.50;4.50;;;;;18.70;42.98;101324.22;5053998;28;45786;-79
2021/05/27 12:04:35;;;;;;;;;6.00;5.50;;;;;18.72;42.92;101316.94;5053710;28;46189;-79
2021/05/27 12:10:24;;;;;;;;;5.00;4.50;;;;;18.85;42.69;101324.56;5053306;28;45592;-80
2021/05/27 12:12:50;;;;;;;;;5.75;5.00;;;;;18.90;42.25;101317.00;5051334;28;47648;-80
2021/05/27 12:15:16;;;;;;;;;4.25;3.00;;;;;18.97;42.88;101318.09;5053027;28;46016;-78
2021/05/27 12:17:45;;;;;;;;;4.75;4.50;;;;;19.09;42.34;101321.41;5068349;28;45643;-78
2021/05/27 12:20:15;;;;;;;;;5.00;5.00;;;;;19.16;42.62;101323.31;5053353;28;45656;-78
2021/05/27 12:22:57;;;;;;;;;4.50;3.75;;;;;19.25;42.42;101313.66;5052647;28;46587;-78
2021/05/27 12:25:25;;;;;;;;;4.50;4.25;;;;;19.33;42.70;101312.91;5053317;28;45847;-78
2021/05/27 12:27:55;;;;;;;;;4.75;4.25;;;;;19.39;42.44;101310.50;5053368;28;45819;-79
2021/05/27 12:30:26;;;;;;;;;2.00;2.00;;;;;19.44;42.27;101310.03;5057221;28;45646;-79
2021/05/27 12:32:54;;;;;;;;;6.50;5.75;;;;;19.51;41.85;101319.13;5056631;28;45855;-80
2021/05/27 12:35:26;;;;;;;;;5.50;5.50;;;;;19.59;41.38;101312.09;5056576;28;46190;-79
2021/05/27 12:37:55;;;;;;;;;4.00;3.00;;;;;19.67;41.88;101314.00;5055591;28;45652;-80
2021/05/27 12:40:35;;;;;;;;;4.50;3.50;;;;;19.76;41.87;101318.38;5056954;28;45688;-80
2021/05/27 12:43:17;;;;;;;;;4.00;3.75;;;;;19.83;41.65;101319.47;5056418;28;46513;-78
2021/05/27 12:45:45;;;;;;;;;5.00;5.00;;;;;19.90;41.55;101323.19;5056331;28;46465;-79
2021/05/27 12:48:19;;;;;;;;;4.25;4.00;;;;;19.95;41.32;101328.91;5056324;28;45733;-80
2021/05/27 12:51:05;;;;;;;;;5.00;5.00;;;;;19.99;40.62;101321.44;5055962;28;45507;-78
2021/05/27 12:53:34;;;;;;;;;7.00;5.25;;;;;19.99;40.82;101324.09;5054327;28;47946;-78
2021/05/27 12:56:14;;;;;;;;;4.75;4.75;;;;;20.00;40.69;101325.78;5056269;28;46338;-77
2021/05/27 12:58:47;;;;;;;;;6.25;6.00;;;;;20.00;40.67;101321.31;5055760;28;45693;-77
2021/05/27 13:01:14;;;;;;;;;4.00;4.00;;;;;20.02;40.56;101319.34;5056360;28;45557;-79
2021/05/27 13:03:51;;;;;;;;;6.00;5.00;;;;;20.04;39.99;101321.81;5055791;28;46537;-77
2021/05/27 13:06:20;;;;;;;;;8.00;5.75;;;;;20.08;39.81;101326.69;5055677;28;46046;-76